sensor_id;sensor_type;location;lat;lon;timestamp;P1;durP1;ratioP1;P2;durP2;ratioP2
82038;SDS011;71610;42.628;23.378;2023-12-20T00:01:00;5.85;;;4.75;;
82038;SDS011;71610;42.628;23.378;2023-12-20T00:03:26;5.05;;;4.38;;
82038;SDS011;71610;42.628;23.378;2023-12-20T00:05:52;5.10;;;4.60;;
82038;SDS011;71610;42.628;23.378;2023-12-20T00:08:18;6.35;;;4.85;;
82038;SDS011;71610;42.628;23.378;2023-12-20T00:10:44;5.05;;;4.55;;
82038;SDS011;71610;42.628;23.378;2023-12-20T00:13:10;6.05;;;4.80;;
82038;SDS011;71610;42.628;23.378;2023-12-20T00:15:36;5.68;;;5.07;;
82038;SDS011;71610;42.628;23.378;2023-12-20T00:18:02;5.72;;;4.97;;
82038;SDS011;71610;42.628;23.378;2023-12-20T00:20:28;5.20;;;4.70;;
82038;SDS011;71610;42.628;23.378;2023-12-20T00:22:56;5.72;;;5.13;;
82038;SDS011;71610;42.628;23.378;2023-12-20T00:25:25;5.43;;;4.47;;
82038;SDS011;71610;42.628;23.378;2023-12-20T00:27:51;6.43;;;4.70;;
82038;SDS011;71610;42.628;23.378;2023-12-20T00:30:17;6.18;;;4.53;;
82038;SDS011;71610;42.628;23.378;2023-12-20T00:32:43;5.93;;;5.00;;
82038;SDS011;71610;42.628;23.378;2023-12-20T00:35:14;5.07;;;4.40;;
82038;SDS011;71610;42.628;23.378;2023-12-20T00:37:40;5.38;;;4.60;;
82038;SDS011;71610;42.628;23.378;2023-12-20T00:40:06;5.57;;;4.78;;
82038;SDS011;71610;42.628;23.378;2023-12-20T00:42:33;5.88;;;4.70;;
82038;SDS011;71610;42.628;23.378;2023-12-20T00:44:59;6.13;;;4.63;;
82038;SDS011;71610;42.628;23.378;2023-12-20T00:47:25;4.78;;;4.38;;
82038;SDS011;71610;42.628;23.378;2023-12-20T00:49:51;6.13;;;4.43;;
82038;SDS011;71610;42.628;23.378;2023-12-20T00:52:17;5.22;;;4.70;;
82038;SDS011;71610;42.628;23.378;2023-12-20T00:54:43;4.60;;;4.15;;
82038;SDS011;71610;42.628;23.378;2023-12-20T00:57:09;4.43;;;4.03;;
82038;SDS011;71610;42.628;23.378;2023-12-20T00:59:35;5.00;;;4.50;;
82038;SDS011;71610;42.628;23.378;2023-12-20T01:02:01;4.90;;;4.30;;
82038;SDS011;71610;42.628;23.378;2023-12-20T01:04:27;5.55;;;4.65;;
82038;SDS011;71610;42.628;23.378;2023-12-20T01:06:53;4.65;;;4.15;;
82038;SDS011;71610;42.628;23.378;2023-12-20T01:09:19;4.50;;;4.07;;
82038;SDS011;71610;42.628;23.378;2023-12-20T01:11:45;6.03;;;4.55;;
82038;SDS011;71610;42.628;23.378;2023-12-20T01:14:11;4.88;;;4.15;;
82038;SDS011;71610;42.628;23.378;2023-12-20T01:16:37;4.47;;;4.03;;
82038;SDS011;71610;42.628;23.378;2023-12-20T01:19:03;5.15;;;4.32;;
82038;SDS011;71610;42.628;23.378;2023-12-20T01:21:29;5.35;;;4.28;;
82038;SDS011;71610;42.628;23.378;2023-12-20T01:23:55;5.00;;;4.40;;
82038;SDS011;71610;42.628;23.378;2023-12-20T01:26:20;5.93;;;4.32;;
82038;SDS011;71610;42.628;23.378;2023-12-20T01:28:46;4.65;;;4.10;;
82038;SDS011;71610;42.628;23.378;2023-12-20T01:31:12;4.88;;;4.28;;
82038;SDS011;71610;42.628;23.378;2023-12-20T01:33:38;4.68;;;4.13;;
82038;SDS011;71610;42.628;23.378;2023-12-20T01:36:04;4.55;;;4.05;;
82038;SDS011;71610;42.628;23.378;2023-12-20T01:38:30;4.22;;;3.80;;
82038;SDS011;71610;42.628;23.378;2023-12-20T01:40:56;4.32;;;3.88;;
82038;SDS011;71610;42.628;23.378;2023-12-20T01:43:21;5.13;;;4.10;;
82038;SDS011;71610;42.628;23.378;2023-12-20T01:45:47;4.10;;;3.70;;
82038;SDS011;71610;42.628;23.378;2023-12-20T01:48:13;4.70;;;3.90;;
82038;SDS011;71610;42.628;23.378;2023-12-20T01:50:41;4.20;;;3.80;;
82038;SDS011;71610;42.628;23.378;2023-12-20T01:53:08;4.13;;;3.72;;
82038;SDS011;71610;42.628;23.378;2023-12-20T01:55:37;4.70;;;4.20;;
82038;SDS011;71610;42.628;23.378;2023-12-20T01:58:05;4.43;;;4.03;;
82038;SDS011;71610;42.628;23.378;2023-12-20T02:00:32;4.28;;;3.88;;
82038;SDS011;71610;42.628;23.378;2023-12-20T02:03:01;5.18;;;4.03;;
82038;SDS011;71610;42.628;23.378;2023-12-20T02:05:28;4.60;;;3.97;;
82038;SDS011;71610;42.628;23.378;2023-12-20T02:07:57;5.50;;;4.22;;
82038;SDS011;71610;42.628;23.378;2023-12-20T02:10:23;4.30;;;3.90;;
82038;SDS011;71610;42.628;23.378;2023-12-20T02:12:49;4.65;;;4.15;;
82038;SDS011;71610;42.628;23.378;2023-12-20T02:15:15;4.25;;;3.83;;
82038;SDS011;71610;42.628;23.378;2023-12-20T02:17:41;5.68;;;3.90;;
82038;SDS011;71610;42.628;23.378;2023-12-20T02:20:08;3.58;;;3.25;;
82038;SDS011;71610;42.628;23.378;2023-12-20T02:22:34;4.88;;;3.83;;
82038;SDS011;71610;42.628;23.378;2023-12-20T02:25:00;3.78;;;3.47;;
82038;SDS011;71610;42.628;23.378;2023-12-20T02:27:26;4.07;;;3.67;;
82038;SDS011;71610;42.628;23.378;2023-12-20T02:29:53;4.20;;;3.80;;
82038;SDS011;71610;42.628;23.378;2023-12-20T02:32:20;4.05;;;3.65;;
82038;SDS011;71610;42.628;23.378;2023-12-20T02:34:47;5.07;;;3.83;;
82038;SDS011;71610;42.628;23.378;2023-12-20T02:37:13;4.28;;;3.65;;
82038;SDS011;71610;42.628;23.378;2023-12-20T02:39:39;4.28;;;3.50;;
82038;SDS011;71610;42.628;23.378;2023-12-20T02:42:04;4.00;;;3.60;;
82038;SDS011;71610;42.628;23.378;2023-12-20T02:44:30;4.03;;;3.58;;
82038;SDS011;71610;42.628;23.378;2023-12-20T02:46:56;4.53;;;3.55;;
82038;SDS011;71610;42.628;23.378;2023-12-20T02:49:22;4.28;;;3.80;;
82038;SDS011;71610;42.628;23.378;2023-12-20T02:51:47;3.83;;;3.42;;
82038;SDS011;71610;42.628;23.378;2023-12-20T02:54:13;3.83;;;3.45;;
82038;SDS011;71610;42.628;23.378;2023-12-20T02:56:39;4.57;;;3.90;;
82038;SDS011;71610;42.628;23.378;2023-12-20T02:59:05;3.90;;;3.60;;
82038;SDS011;71610;42.628;23.378;2023-12-20T03:01:31;4.53;;;3.78;;
82038;SDS011;71610;42.628;23.378;2023-12-20T03:03:57;4.07;;;3.67;;
82038;SDS011;71610;42.628;23.378;2023-12-20T03:06:23;4.38;;;3.63;;
82038;SDS011;71610;42.628;23.378;2023-12-20T03:08:49;4.32;;;3.63;;
82038;SDS011;71610;42.628;23.378;2023-12-20T03:11:15;3.75;;;3.40;;
82038;SDS011;71610;42.628;23.378;2023-12-20T03:13:41;3.80;;;3.30;;
82038;SDS011;71610;42.628;23.378;2023-12-20T03:16:09;3.83;;;3.40;;
82038;SDS011;71610;42.628;23.378;2023-12-20T03:18:36;3.88;;;3.55;;
82038;SDS011;71610;42.628;23.378;2023-12-20T03:21:02;4.25;;;3.70;;
82038;SDS011;71610;42.628;23.378;2023-12-20T03:23:29;4.40;;;3.65;;
82038;SDS011;71610;42.628;23.378;2023-12-20T03:25:55;3.90;;;3.38;;
82038;SDS011;71610;42.628;23.378;2023-12-20T03:28:21;4.35;;;3.72;;
82038;SDS011;71610;42.628;23.378;2023-12-20T03:30:48;4.55;;;4.00;;
82038;SDS011;71610;42.628;23.378;2023-12-20T03:33:14;4.05;;;3.65;;
82038;SDS011;71610;42.628;23.378;2023-12-20T03:35:40;4.25;;;3.80;;
82038;SDS011;71610;42.628;23.378;2023-12-20T03:38:06;4.10;;;3.70;;
82038;SDS011;71610;42.628;23.378;2023-12-20T03:40:32;3.60;;;3.30;;
82038;SDS011;71610;42.628;23.378;2023-12-20T03:42:58;5.25;;;4.10;;
82038;SDS011;71610;42.628;23.378;2023-12-20T03:45:24;4.65;;;3.80;;
82038;SDS011;71610;42.628;23.378;2023-12-20T03:47:50;4.90;;;4.40;;
82038;SDS011;71610;42.628;23.378;2023-12-20T03:50:20;4.70;;;4.18;;
82038;SDS011;71610;42.628;23.378;2023-12-20T03:52:47;6.35;;;4.18;;
82038;SDS011;71610;42.628;23.378;2023-12-20T03:55:13;5.15;;;4.30;;
82038;SDS011;71610;42.628;23.378;2023-12-20T03:57:39;4.78;;;4.28;;
82038;SDS011;71610;42.628;23.378;2023-12-20T04:00:05;5.00;;;4.50;;
82038;SDS011;71610;42.628;23.378;2023-12-20T04:02:35;4.70;;;4.20;;
82038;SDS011;71610;42.628;23.378;2023-12-20T04:05:01;5.25;;;4.60;;
82038;SDS011;71610;42.628;23.378;2023-12-20T04:07:27;5.00;;;4.50;;
82038;SDS011;71610;42.628;23.378;2023-12-20T04:09:53;4.75;;;4.25;;
82038;SDS011;71610;42.628;23.378;2023-12-20T04:12:19;5.03;;;4.53;;
82038;SDS011;71610;42.628;23.378;2023-12-20T04:14:44;5.05;;;4.55;;
82038;SDS011;71610;42.628;23.378;2023-12-20T04:17:10;5.28;;;4.78;;
82038;SDS011;71610;42.628;23.378;2023-12-20T04:19:36;5.32;;;4.57;;
82038;SDS011;71610;42.628;23.378;2023-12-20T04:22:01;4.88;;;4.47;;
82038;SDS011;71610;42.628;23.378;2023-12-20T04:24:27;5.70;;;4.70;;
82038;SDS011;71610;42.628;23.378;2023-12-20T04:26:53;4.95;;;4.45;;
82038;SDS011;71610;42.628;23.378;2023-12-20T04:29:19;5.03;;;4.50;;
82038;SDS011;71610;42.628;23.378;2023-12-20T04:31:44;5.07;;;4.57;;
82038;SDS011;71610;42.628;23.378;2023-12-20T04:34:10;6.40;;;4.50;;
82038;SDS011;71610;42.628;23.378;2023-12-20T04:36:36;4.75;;;4.20;;
82038;SDS011;71610;42.628;23.378;2023-12-20T04:39:01;5.40;;;4.65;;
82038;SDS011;71610;42.628;23.378;2023-12-20T04:41:28;5.68;;;4.80;;
82038;SDS011;71610;42.628;23.378;2023-12-20T04:43:53;5.95;;;4.50;;
82038;SDS011;71610;42.628;23.378;2023-12-20T04:46:19;5.43;;;4.82;;
82038;SDS011;71610;42.628;23.378;2023-12-20T04:48:45;5.13;;;4.40;;
82038;SDS011;71610;42.628;23.378;2023-12-20T04:51:10;5.63;;;4.50;;
82038;SDS011;71610;42.628;23.378;2023-12-20T04:53:36;4.95;;;4.18;;
82038;SDS011;71610;42.628;23.378;2023-12-20T04:56:02;5.00;;;4.30;;
82038;SDS011;71610;42.628;23.378;2023-12-20T04:58:28;5.15;;;4.22;;
82038;SDS011;71610;42.628;23.378;2023-12-20T05:00:54;6.13;;;4.80;;
82038;SDS011;71610;42.628;23.378;2023-12-20T05:03:19;7.05;;;5.30;;
82038;SDS011;71610;42.628;23.378;2023-12-20T05:05:45;6.28;;;5.40;;
82038;SDS011;71610;42.628;23.378;2023-12-20T05:08:11;8.32;;;5.38;;
82038;SDS011;71610;42.628;23.378;2023-12-20T05:10:37;15.32;;;11.50;;
82038;SDS011;71610;42.628;23.378;2023-12-20T05:13:02;22.02;;;14.80;;
82038;SDS011;71610;42.628;23.378;2023-12-20T05:15:28;25.90;;;18.38;;
82038;SDS011;71610;42.628;23.378;2023-12-20T05:17:54;28.98;;;19.33;;
82038;SDS011;71610;42.628;23.378;2023-12-20T05:20:20;21.17;;;15.43;;
82038;SDS011;71610;42.628;23.378;2023-12-20T05:22:45;20.38;;;14.73;;
82038;SDS011;71610;42.628;23.378;2023-12-20T05:25:12;21.23;;;14.52;;
82038;SDS011;71610;42.628;23.378;2023-12-20T05:27:38;20.92;;;13.93;;
82038;SDS011;71610;42.628;23.378;2023-12-20T05:30:03;23.23;;;13.90;;
82038;SDS011;71610;42.628;23.378;2023-12-20T05:32:30;17.77;;;12.88;;
82038;SDS011;71610;42.628;23.378;2023-12-20T05:34:56;27.17;;;12.95;;
82038;SDS011;71610;42.628;23.378;2023-12-20T05:37:22;19.98;;;13.10;;
82038;SDS011;71610;42.628;23.378;2023-12-20T05:39:47;21.67;;;12.85;;
82038;SDS011;71610;42.628;23.378;2023-12-20T05:42:13;25.58;;;13.50;;
82038;SDS011;71610;42.628;23.378;2023-12-20T05:44:39;21.25;;;13.73;;
82038;SDS011;71610;42.628;23.378;2023-12-20T05:47:05;35.35;;;13.32;;
82038;SDS011;71610;42.628;23.378;2023-12-20T05:49:31;26.83;;;13.63;;
82038;SDS011;71610;42.628;23.378;2023-12-20T05:51:57;25.73;;;12.20;;
82038;SDS011;71610;42.628;23.378;2023-12-20T05:54:22;19.75;;;12.55;;
82038;SDS011;71610;42.628;23.378;2023-12-20T05:56:48;19.27;;;12.15;;
82038;SDS011;71610;42.628;23.378;2023-12-20T05:59:14;25.77;;;13.18;;
82038;SDS011;71610;42.628;23.378;2023-12-20T06:01:40;20.00;;;11.93;;
82038;SDS011;71610;42.628;23.378;2023-12-20T06:04:05;27.92;;;13.55;;
82038;SDS011;71610;42.628;23.378;2023-12-20T06:06:31;27.27;;;12.90;;
82038;SDS011;71610;42.628;23.378;2023-12-20T06:08:57;35.40;;;12.60;;
82038;SDS011;71610;42.628;23.378;2023-12-20T06:11:23;30.58;;;12.65;;
82038;SDS011;71610;42.628;23.378;2023-12-20T06:13:48;23.90;;;12.05;;
82038;SDS011;71610;42.628;23.378;2023-12-20T06:16:17;22.92;;;11.90;;
82038;SDS011;71610;42.628;23.378;2023-12-20T06:18:43;30.98;;;11.90;;
82038;SDS011;71610;42.628;23.378;2023-12-20T06:21:09;31.77;;;12.77;;
82038;SDS011;71610;42.628;23.378;2023-12-20T06:23:37;26.17;;;11.68;;
82038;SDS011;71610;42.628;23.378;2023-12-20T06:26:03;23.48;;;11.45;;
82038;SDS011;71610;42.628;23.378;2023-12-20T06:28:29;35.83;;;12.57;;
82038;SDS011;71610;42.628;23.378;2023-12-20T06:30:55;25.83;;;11.77;;
82038;SDS011;71610;42.628;23.378;2023-12-20T06:33:22;35.97;;;11.90;;
82038;SDS011;71610;42.628;23.378;2023-12-20T06:35:48;26.05;;;11.98;;
82038;SDS011;71610;42.628;23.378;2023-12-20T06:38:14;24.45;;;12.20;;
82038;SDS011;71610;42.628;23.378;2023-12-20T06:40:40;32.40;;;12.68;;
82038;SDS011;71610;42.628;23.378;2023-12-20T06:43:06;24.35;;;11.35;;
82038;SDS011;71610;42.628;23.378;2023-12-20T06:45:32;35.53;;;11.60;;
82038;SDS011;71610;42.628;23.378;2023-12-20T06:47:57;23.98;;;11.63;;
82038;SDS011;71610;42.628;23.378;2023-12-20T06:50:24;30.30;;;11.82;;
82038;SDS011;71610;42.628;23.378;2023-12-20T06:52:50;32.60;;;11.32;;
82038;SDS011;71610;42.628;23.378;2023-12-20T06:55:16;33.95;;;11.15;;
82038;SDS011;71610;42.628;23.378;2023-12-20T06:57:42;35.15;;;11.18;;
82038;SDS011;71610;42.628;23.378;2023-12-20T07:00:08;28.88;;;10.40;;
82038;SDS011;71610;42.628;23.378;2023-12-20T07:02:36;37.53;;;11.73;;
82038;SDS011;71610;42.628;23.378;2023-12-20T07:05:01;21.63;;;10.38;;
82038;SDS011;71610;42.628;23.378;2023-12-20T07:07:27;26.27;;;10.25;;
82038;SDS011;71610;42.628;23.378;2023-12-20T07:09:53;25.77;;;10.55;;
82038;SDS011;71610;42.628;23.378;2023-12-20T07:12:19;25.25;;;10.52;;
82038;SDS011;71610;42.628;23.378;2023-12-20T07:14:45;25.42;;;11.25;;
82038;SDS011;71610;42.628;23.378;2023-12-20T07:17:11;20.35;;;9.98;;
82038;SDS011;71610;42.628;23.378;2023-12-20T07:19:39;25.10;;;10.30;;
82038;SDS011;71610;42.628;23.378;2023-12-20T07:22:05;21.77;;;10.63;;
82038;SDS011;71610;42.628;23.378;2023-12-20T07:24:32;27.20;;;10.27;;
82038;SDS011;71610;42.628;23.378;2023-12-20T07:26:59;32.65;;;9.68;;
82038;SDS011;71610;42.628;23.378;2023-12-20T07:29:25;37.35;;;10.68;;
82038;SDS011;71610;42.628;23.378;2023-12-20T07:31:51;29.48;;;9.75;;
82038;SDS011;71610;42.628;23.378;2023-12-20T07:34:20;30.98;;;10.52;;
82038;SDS011;71610;42.628;23.378;2023-12-20T07:36:46;32.08;;;9.95;;
82038;SDS011;71610;42.628;23.378;2023-12-20T07:39:12;42.58;;;10.02;;
82038;SDS011;71610;42.628;23.378;2023-12-20T07:41:39;56.65;;;10.90;;
82038;SDS011;71610;42.628;23.378;2023-12-20T07:44:05;31.27;;;9.27;;
82038;SDS011;71610;42.628;23.378;2023-12-20T07:46:31;44.38;;;9.18;;
82038;SDS011;71610;42.628;23.378;2023-12-20T07:48:57;33.17;;;9.00;;
82038;SDS011;71610;42.628;23.378;2023-12-20T07:51:23;46.33;;;9.90;;
82038;SDS011;71610;42.628;23.378;2023-12-20T07:54:07;36.50;;;10.63;;
82038;SDS011;71610;42.628;23.378;2023-12-20T07:56:33;56.63;;;10.07;;
82038;SDS011;71610;42.628;23.378;2023-12-20T07:58:59;36.80;;;9.60;;
82038;SDS011;71610;42.628;23.378;2023-12-20T08:01:26;57.03;;;9.85;;
82038;SDS011;71610;42.628;23.378;2023-12-20T08:03:52;32.47;;;9.25;;
82038;SDS011;71610;42.628;23.378;2023-12-20T08:06:18;32.63;;;8.75;;
82038;SDS011;71610;42.628;23.378;2023-12-20T08:08:43;38.47;;;10.30;;
82038;SDS011;71610;42.628;23.378;2023-12-20T08:11:09;42.05;;;10.98;;
82038;SDS011;71610;42.628;23.378;2023-12-20T08:13:35;46.03;;;11.02;;
82038;SDS011;71610;42.628;23.378;2023-12-20T08:16:01;58.60;;;11.38;;
82038;SDS011;71610;42.628;23.378;2023-12-20T08:18:28;38.50;;;11.90;;
82038;SDS011;71610;42.628;23.378;2023-12-20T08:20:54;61.28;;;12.98;;
82038;SDS011;71610;42.628;23.378;2023-12-20T08:23:20;57.08;;;13.75;;
82038;SDS011;71610;42.628;23.378;2023-12-20T08:25:46;64.85;;;14.90;;
82038;SDS011;71610;42.628;23.378;2023-12-20T08:28:13;55.05;;;15.02;;
82038;SDS011;71610;42.628;23.378;2023-12-20T08:30:39;68.93;;;15.50;;
82038;SDS011;71610;42.628;23.378;2023-12-20T08:33:05;52.63;;;14.27;;
82038;SDS011;71610;42.628;23.378;2023-12-20T08:35:36;59.80;;;15.55;;
82038;SDS011;71610;42.628;23.378;2023-12-20T08:38:02;49.67;;;16.60;;
82038;SDS011;71610;42.628;23.378;2023-12-20T08:40:29;78.38;;;17.77;;
82038;SDS011;71610;42.628;23.378;2023-12-20T08:42:54;69.35;;;18.20;;
82038;SDS011;71610;42.628;23.378;2023-12-20T08:45:20;57.95;;;17.85;;
82038;SDS011;71610;42.628;23.378;2023-12-20T08:47:46;52.67;;;17.45;;
82038;SDS011;71610;42.628;23.378;2023-12-20T08:50:12;58.20;;;19.08;;
82038;SDS011;71610;42.628;23.378;2023-12-20T08:52:38;73.70;;;18.98;;
82038;SDS011;71610;42.628;23.378;2023-12-20T08:55:04;66.32;;;18.75;;
82038;SDS011;71610;42.628;23.378;2023-12-20T08:57:30;90.05;;;20.17;;
82038;SDS011;71610;42.628;23.378;2023-12-20T08:59:57;75.30;;;20.25;;
82038;SDS011;71610;42.628;23.378;2023-12-20T09:02:22;74.93;;;20.90;;
82038;SDS011;71610;42.628;23.378;2023-12-20T09:04:48;89.03;;;19.83;;
82038;SDS011;71610;42.628;23.378;2023-12-20T09:07:21;97.78;;;19.92;;
82038;SDS011;71610;42.628;23.378;2023-12-20T09:09:47;74.22;;;20.75;;
82038;SDS011;71610;42.628;23.378;2023-12-20T09:12:13;72.85;;;20.25;;
82038;SDS011;71610;42.628;23.378;2023-12-20T09:14:39;63.58;;;20.27;;
82038;SDS011;71610;42.628;23.378;2023-12-20T09:17:04;63.50;;;19.50;;
82038;SDS011;71610;42.628;23.378;2023-12-20T09:19:33;55.78;;;19.60;;
82038;SDS011;71610;42.628;23.378;2023-12-20T09:21:58;89.32;;;18.70;;
82038;SDS011;71610;42.628;23.378;2023-12-20T09:24:24;85.55;;;18.77;;
82038;SDS011;71610;42.628;23.378;2023-12-20T09:26:50;81.13;;;18.88;;
82038;SDS011;71610;42.628;23.378;2023-12-20T09:29:16;75.97;;;18.05;;
82038;SDS011;71610;42.628;23.378;2023-12-20T09:31:43;90.43;;;18.50;;
82038;SDS011;71610;42.628;23.378;2023-12-20T09:34:09;81.13;;;18.45;;
82038;SDS011;71610;42.628;23.378;2023-12-20T09:36:35;87.35;;;18.88;;
82038;SDS011;71610;42.628;23.378;2023-12-20T09:39:01;63.78;;;16.45;;
82038;SDS011;71610;42.628;23.378;2023-12-20T09:41:28;85.38;;;18.50;;
82038;SDS011;71610;42.628;23.378;2023-12-20T09:43:57;70.45;;;18.38;;
82038;SDS011;71610;42.628;23.378;2023-12-20T09:46:27;68.45;;;17.85;;
82038;SDS011;71610;42.628;23.378;2023-12-20T09:48:58;53.15;;;16.20;;
82038;SDS011;71610;42.628;23.378;2023-12-20T09:51:26;62.72;;;16.77;;
82038;SDS011;71610;42.628;23.378;2023-12-20T09:53:54;77.38;;;16.63;;
82038;SDS011;71610;42.628;23.378;2023-12-20T09:56:21;52.45;;;16.92;;
82038;SDS011;71610;42.628;23.378;2023-12-20T09:58:47;57.20;;;16.08;;
82038;SDS011;71610;42.628;23.378;2023-12-20T10:01:13;55.83;;;17.35;;
82038;SDS011;71610;42.628;23.378;2023-12-20T10:03:41;71.15;;;17.33;;
82038;SDS011;71610;42.628;23.378;2023-12-20T10:06:07;60.25;;;16.60;;
82038;SDS011;71610;42.628;23.378;2023-12-20T10:08:33;53.72;;;15.45;;
82038;SDS011;71610;42.628;23.378;2023-12-20T10:10:59;54.50;;;16.23;;
82038;SDS011;71610;42.628;23.378;2023-12-20T10:13:28;65.70;;;15.95;;
82038;SDS011;71610;42.628;23.378;2023-12-20T10:15:54;52.25;;;15.20;;
82038;SDS011;71610;42.628;23.378;2023-12-20T10:18:21;56.40;;;14.77;;
82038;SDS011;71610;42.628;23.378;2023-12-20T10:20:46;44.65;;;14.95;;
82038;SDS011;71610;42.628;23.378;2023-12-20T10:23:13;46.42;;;15.68;;
82038;SDS011;71610;42.628;23.378;2023-12-20T10:25:40;41.28;;;14.20;;
82038;SDS011;71610;42.628;23.378;2023-12-20T10:28:16;39.25;;;14.00;;
82038;SDS011;71610;42.628;23.378;2023-12-20T10:30:48;48.88;;;15.65;;
82038;SDS011;71610;42.628;23.378;2023-12-20T10:33:15;55.65;;;14.82;;
82038;SDS011;71610;42.628;23.378;2023-12-20T10:35:52;62.20;;;15.90;;
82038;SDS011;71610;42.628;23.378;2023-12-20T10:38:19;52.22;;;15.93;;
82038;SDS011;71610;42.628;23.378;2023-12-20T10:40:45;50.20;;;16.83;;
82038;SDS011;71610;42.628;23.378;2023-12-20T10:43:11;51.47;;;18.08;;
82038;SDS011;71610;42.628;23.378;2023-12-20T10:45:38;44.53;;;19.08;;
82038;SDS011;71610;42.628;23.378;2023-12-20T10:48:04;52.38;;;18.38;;
82038;SDS011;71610;42.628;23.378;2023-12-20T10:50:30;36.72;;;18.48;;
82038;SDS011;71610;42.628;23.378;2023-12-20T10:52:57;47.22;;;19.58;;
82038;SDS011;71610;42.628;23.378;2023-12-20T10:55:23;42.03;;;18.77;;
82038;SDS011;71610;42.628;23.378;2023-12-20T10:57:53;38.92;;;18.83;;
82038;SDS011;71610;42.628;23.378;2023-12-20T11:00:22;40.20;;;19.63;;
82038;SDS011;71610;42.628;23.378;2023-12-20T11:02:49;46.50;;;19.85;;
82038;SDS011;71610;42.628;23.378;2023-12-20T11:05:22;41.50;;;17.98;;
82038;SDS011;71610;42.628;23.378;2023-12-20T11:10:49;38.22;;;18.73;;
82038;SDS011;71610;42.628;23.378;2023-12-20T11:13:37;36.00;;;17.45;;
82038;SDS011;71610;42.628;23.378;2023-12-20T11:16:09;38.10;;;17.92;;
82038;SDS011;71610;42.628;23.378;2023-12-20T11:18:35;36.83;;;17.08;;
82038;SDS011;71610;42.628;23.378;2023-12-20T11:21:02;44.47;;;17.02;;
82038;SDS011;71610;42.628;23.378;2023-12-20T11:23:30;39.72;;;17.52;;
82038;SDS011;71610;42.628;23.378;2023-12-20T11:25:58;34.22;;;16.42;;
82038;SDS011;71610;42.628;23.378;2023-12-20T11:28:24;38.65;;;17.23;;
82038;SDS011;71610;42.628;23.378;2023-12-20T11:30:51;31.23;;;17.13;;
82038;SDS011;71610;42.628;23.378;2023-12-20T11:33:25;32.90;;;16.33;;
82038;SDS011;71610;42.628;23.378;2023-12-20T11:35:57;36.72;;;17.42;;
82038;SDS011;71610;42.628;23.378;2023-12-20T11:38:25;34.08;;;15.75;;
82038;SDS011;71610;42.628;23.378;2023-12-20T11:40:50;29.10;;;16.02;;
82038;SDS011;71610;42.628;23.378;2023-12-20T11:43:31;27.90;;;15.38;;
82038;SDS011;71610;42.628;23.378;2023-12-20T11:46:03;41.97;;;17.90;;
82038;SDS011;71610;42.628;23.378;2023-12-20T11:48:30;31.80;;;15.98;;
82038;SDS011;71610;42.628;23.378;2023-12-20T11:50:57;29.13;;;15.45;;
82038;SDS011;71610;42.628;23.378;2023-12-20T11:53:23;30.80;;;16.27;;
82038;SDS011;71610;42.628;23.378;2023-12-20T11:55:49;28.63;;;15.60;;
82038;SDS011;71610;42.628;23.378;2023-12-20T11:58:15;29.88;;;15.50;;
82038;SDS011;71610;42.628;23.378;2023-12-20T12:00:42;34.72;;;15.48;;
82038;SDS011;71610;42.628;23.378;2023-12-20T12:03:08;30.52;;;14.95;;
82038;SDS011;71610;42.628;23.378;2023-12-20T12:05:34;31.48;;;14.95;;
82038;SDS011;71610;42.628;23.378;2023-12-20T12:08:01;24.85;;;15.30;;
82038;SDS011;71610;42.628;23.378;2023-12-20T12:10:28;24.80;;;15.15;;
82038;SDS011;71610;42.628;23.378;2023-12-20T12:12:54;23.70;;;14.60;;
82038;SDS011;71610;42.628;23.378;2023-12-20T12:15:20;27.45;;;14.82;;
82038;SDS011;71610;42.628;23.378;2023-12-20T12:17:56;29.15;;;14.25;;
82038;SDS011;71610;42.628;23.378;2023-12-20T12:20:22;23.92;;;14.98;;
82038;SDS011;71610;42.628;23.378;2023-12-20T12:25:24;29.45;;;14.77;;
82038;SDS011;71610;42.628;23.378;2023-12-20T12:27:51;25.25;;;14.43;;
82038;SDS011;71610;42.628;23.378;2023-12-20T12:30:17;28.17;;;15.27;;
82038;SDS011;71610;42.628;23.378;2023-12-20T12:32:46;22.63;;;14.80;;
82038;SDS011;71610;42.628;23.378;2023-12-20T12:35:13;27.85;;;15.05;;
82038;SDS011;71610;42.628;23.378;2023-12-20T12:37:40;26.20;;;14.63;;
82038;SDS011;71610;42.628;23.378;2023-12-20T12:40:09;28.75;;;15.18;;
82038;SDS011;71610;42.628;23.378;2023-12-20T12:42:39;23.40;;;14.57;;
82038;SDS011;71610;42.628;23.378;2023-12-20T12:45:06;22.20;;;14.25;;
82038;SDS011;71610;42.628;23.378;2023-12-20T12:47:33;31.65;;;14.52;;
82038;SDS011;71610;42.628;23.378;2023-12-20T12:49:59;40.10;;;14.55;;
82038;SDS011;71610;42.628;23.378;2023-12-20T12:52:25;37.25;;;14.48;;
82038;SDS011;71610;42.628;23.378;2023-12-20T12:54:52;54.15;;;15.25;;
82038;SDS011;71610;42.628;23.378;2023-12-20T12:57:18;30.48;;;14.80;;
82038;SDS011;71610;42.628;23.378;2023-12-20T12:59:44;33.63;;;15.02;;
82038;SDS011;71610;42.628;23.378;2023-12-20T13:02:13;34.20;;;15.10;;
82038;SDS011;71610;42.628;23.378;2023-12-20T13:04:39;42.40;;;15.10;;
82038;SDS011;71610;42.628;23.378;2023-12-20T13:07:06;34.55;;;15.00;;
82038;SDS011;71610;42.628;23.378;2023-12-20T13:09:33;38.25;;;14.38;;
82038;SDS011;71610;42.628;23.378;2023-12-20T13:11:59;40.58;;;14.77;;
82038;SDS011;71610;42.628;23.378;2023-12-20T13:14:24;36.97;;;13.63;;
82038;SDS011;71610;42.628;23.378;2023-12-20T13:16:50;41.30;;;14.35;;
82038;SDS011;71610;42.628;23.378;2023-12-20T13:19:16;27.52;;;14.13;;
82038;SDS011;71610;42.628;23.378;2023-12-20T13:21:42;26.80;;;13.52;;
82038;SDS011;71610;42.628;23.378;2023-12-20T13:24:07;30.83;;;13.57;;
82038;SDS011;71610;42.628;23.378;2023-12-20T13:26:33;30.85;;;13.90;;
82038;SDS011;71610;42.628;23.378;2023-12-20T13:28:59;34.88;;;13.93;;
82038;SDS011;71610;42.628;23.378;2023-12-20T13:31:24;32.63;;;14.48;;
82038;SDS011;71610;42.628;23.378;2023-12-20T13:33:50;29.27;;;14.18;;
82038;SDS011;71610;42.628;23.378;2023-12-20T13:36:17;40.25;;;13.05;;
82038;SDS011;71610;42.628;23.378;2023-12-20T13:38:44;37.15;;;14.63;;
82038;SDS011;71610;42.628;23.378;2023-12-20T13:41:09;38.80;;;14.45;;
82038;SDS011;71610;42.628;23.378;2023-12-20T13:43:35;31.30;;;14.55;;
82038;SDS011;71610;42.628;23.378;2023-12-20T13:46:01;36.95;;;14.52;;
82038;SDS011;71610;42.628;23.378;2023-12-20T13:48:27;33.30;;;14.25;;
82038;SDS011;71610;42.628;23.378;2023-12-20T13:50:52;25.80;;;13.38;;
82038;SDS011;71610;42.628;23.378;2023-12-20T13:53:19;29.67;;;13.88;;
82038;SDS011;71610;42.628;23.378;2023-12-20T13:55:45;34.50;;;14.32;;
82038;SDS011;71610;42.628;23.378;2023-12-20T13:58:11;33.45;;;13.98;;
82038;SDS011;71610;42.628;23.378;2023-12-20T14:00:37;34.15;;;14.23;;
82038;SDS011;71610;42.628;23.378;2023-12-20T14:03:04;31.45;;;13.65;;
82038;SDS011;71610;42.628;23.378;2023-12-20T14:05:29;31.73;;;14.88;;
82038;SDS011;71610;42.628;23.378;2023-12-20T14:07:56;37.35;;;15.20;;
82038;SDS011;71610;42.628;23.378;2023-12-20T14:10:25;36.93;;;14.77;;
82038;SDS011;71610;42.628;23.378;2023-12-20T14:12:52;42.92;;;15.77;;
82038;SDS011;71610;42.628;23.378;2023-12-20T14:15:18;35.97;;;15.00;;
82038;SDS011;71610;42.628;23.378;2023-12-20T14:17:44;34.00;;;14.95;;
82038;SDS011;71610;42.628;23.378;2023-12-20T14:20:10;40.55;;;15.63;;